sensor_id;sensor_type;location;lat;lon;timestamp;P1;durP1;ratioP1;P2;durP2;ratioP2
4674;SDS011;2351;50.812;12.872;2022-09-17T00:01:59;2.03;;;1.23;;
4674;SDS011;2351;50.812;12.872;2022-09-17T00:04:32;4.17;;;1.20;;
4674;SDS011;2351;50.812;12.872;2022-09-17T00:07:03;2.80;;;1.50;;
4674;SDS011;2351;50.812;12.872;2022-09-17T00:09:35;1.83;;;1.43;;
4674;SDS011;2351;50.812;12.872;2022-09-17T00:12:06;6.70;;;1.43;;
4674;SDS011;2351;50.812;12.872;2022-09-17T00:14:39;2.50;;;1.50;;
4674;SDS011;2351;50.812;12.872;2022-09-17T00:17:12;2.80;;;1.40;;
4674;SDS011;2351;50.812;12.872;2022-09-17T00:19:44;4.40;;;1.23;;
4674;SDS011;2351;50.812;12.872;2022-09-17T00:22:15;1.90;;;1.43;;
4674;SDS011;2351;50.812;12.872;2022-09-17T00:24:46;3.10;;;1.27;;
4674;SDS011;2351;50.812;12.872;2022-09-17T00:27:18;3.40;;;1.10;;
4674;SDS011;2351;50.812;12.872;2022-09-17T00:29:50;1.20;;;1.10;;
4674;SDS011;2351;50.812;12.872;2022-09-17T00:32:23;5.27;;;0.90;;
4674;SDS011;2351;50.812;12.872;2022-09-17T00:34:55;5.83;;;1.73;;
4674;SDS011;2351;50.812;12.872;2022-09-17T00:37:26;2.70;;;1.27;;
4674;SDS011;2351;50.812;12.872;2022-09-17T00:39:58;1.40;;;1.10;;
4674;SDS011;2351;50.812;12.872;2022-09-17T00:42:29;7.67;;;1.57;;
4674;SDS011;2351;50.812;12.872;2022-09-17T00:45:01;3.53;;;1.50;;
4674;SDS011;2351;50.812;12.872;2022-09-17T00:47:35;1.07;;;0.90;;
4674;SDS011;2351;50.812;12.872;2022-09-17T00:50:09;9.00;;;1.20;;
4674;SDS011;2351;50.812;12.872;2022-09-17T00:52:46;1.73;;;1.00;;
4674;SDS011;2351;50.812;12.872;2022-09-17T00:55:21;5.50;;;1.50;;
4674;SDS011;2351;50.812;12.872;2022-09-17T00:57:57;2.00;;;0.83;;
4674;SDS011;2351;50.812;12.872;2022-09-17T01:00:30;1.70;;;1.03;;
4674;SDS011;2351;50.812;12.872;2022-09-17T01:03:04;3.63;;;1.20;;
4674;SDS011;2351;50.812;12.872;2022-09-17T01:05:36;1.47;;;0.97;;
4674;SDS011;2351;50.812;12.872;2022-09-17T01:08:16;0.90;;;0.80;;
4674;SDS011;2351;50.812;12.872;2022-09-17T01:11:05;1.10;;;0.80;;
4674;SDS011;2351;50.812;12.872;2022-09-17T01:13:48;4.83;;;1.30;;
4674;SDS011;2351;50.812;12.872;2022-09-17T01:16:32;1.40;;;1.13;;
4674;SDS011;2351;50.812;12.872;2022-09-17T01:19:19;1.00;;;0.70;;
4674;SDS011;2351;50.812;12.872;2022-09-17T01:22:13;15.43;;;1.80;;
4674;SDS011;2351;50.812;12.872;2022-09-17T01:24:54;2.37;;;1.10;;
4674;SDS011;2351;50.812;12.872;2022-09-17T01:31:13;2.80;;;1.40;;
4674;SDS011;2351;50.812;12.872;2022-09-17T01:33:52;3.50;;;1.17;;
4674;SDS011;2351;50.812;12.872;2022-09-17T01:36:34;7.80;;;1.20;;
4674;SDS011;2351;50.812;12.872;2022-09-17T01:39:23;1.40;;;0.87;;
4674;SDS011;2351;50.812;12.872;2022-09-17T01:42:05;4.30;;;1.47;;
4674;SDS011;2351;50.812;12.872;2022-09-17T01:44:45;1.60;;;1.37;;
4674;SDS011;2351;50.812;12.872;2022-09-17T01:47:25;4.80;;;0.90;;
4674;SDS011;2351;50.812;12.872;2022-09-17T01:50:00;10.57;;;1.03;;
4674;SDS011;2351;50.812;12.872;2022-09-17T01:52:35;2.37;;;1.20;;
4674;SDS011;2351;50.812;12.872;2022-09-17T01:55:12;1.63;;;1.00;;
4674;SDS011;2351;50.812;12.872;2022-09-17T01:57:46;14.37;;;2.90;;
4674;SDS011;2351;50.812;12.872;2022-09-17T02:00:25;2.80;;;1.10;;
4674;SDS011;2351;50.812;12.872;2022-09-17T02:02:58;3.30;;;1.03;;
4674;SDS011;2351;50.812;12.872;2022-09-17T02:05:34;7.73;;;0.93;;
4674;SDS011;2351;50.812;12.872;2022-09-17T02:08:13;3.07;;;1.20;;
4674;SDS011;2351;50.812;12.872;2022-09-17T02:10:52;1.63;;;1.00;;
4674;SDS011;2351;50.812;12.872;2022-09-17T02:13:27;2.50;;;1.13;;
4674;SDS011;2351;50.812;12.872;2022-09-17T02:16:04;2.73;;;1.77;;
4674;SDS011;2351;50.812;12.872;2022-09-17T02:18:42;1.13;;;1.03;;
4674;SDS011;2351;50.812;12.872;2022-09-17T02:21:20;1.47;;;1.10;;
4674;SDS011;2351;50.812;12.872;2022-09-17T02:24:01;1.97;;;1.33;;
4674;SDS011;2351;50.812;12.872;2022-09-17T02:26:38;0.97;;;0.97;;
4674;SDS011;2351;50.812;12.872;2022-09-17T02:29:16;4.13;;;1.70;;
4674;SDS011;2351;50.812;12.872;2022-09-17T02:31:54;17.03;;;1.70;;
4674;SDS011;2351;50.812;12.872;2022-09-17T02:34:27;2.80;;;1.20;;
4674;SDS011;2351;50.812;12.872;2022-09-17T02:36:59;8.80;;;1.53;;
4674;SDS011;2351;50.812;12.872;2022-09-17T02:39:31;1.90;;;1.30;;
4674;SDS011;2351;50.812;12.872;2022-09-17T02:42:04;2.77;;;1.33;;
4674;SDS011;2351;50.812;12.872;2022-09-17T02:44:44;1.40;;;1.30;;
4674;SDS011;2351;50.812;12.872;2022-09-17T02:53:44;18.37;;;1.90;;
4674;SDS011;2351;50.812;12.872;2022-09-17T02:56:24;2.50;;;1.80;;
4674;SDS011;2351;50.812;12.872;2022-09-17T02:59:08;1.67;;;1.37;;
4674;SDS011;2351;50.812;12.872;2022-09-17T03:01:47;3.00;;;1.43;;
4674;SDS011;2351;50.812;12.872;2022-09-17T03:04:22;6.00;;;2.20;;
4674;SDS011;2351;50.812;12.872;2022-09-17T03:06:58;1.80;;;1.63;;
4674;SDS011;2351;50.812;12.872;2022-09-17T03:09:31;8.83;;;1.87;;
4674;SDS011;2351;50.812;12.872;2022-09-17T03:12:03;2.00;;;1.73;;
4674;SDS011;2351;50.812;12.872;2022-09-17T03:14:35;3.43;;;1.63;;
4674;SDS011;2351;50.812;12.872;2022-09-17T03:17:06;4.20;;;1.50;;
4674;SDS011;2351;50.812;12.872;2022-09-17T03:19:41;9.10;;;2.30;;
4674;SDS011;2351;50.812;12.872;2022-09-17T03:22:13;4.90;;;2.17;;
4674;SDS011;2351;50.812;12.872;2022-09-17T03:24:45;9.50;;;1.70;;
4674;SDS011;2351;50.812;12.872;2022-09-17T03:27:16;4.23;;;2.00;;
4674;SDS011;2351;50.812;12.872;2022-09-17T03:29:48;6.20;;;1.93;;
4674;SDS011;2351;50.812;12.872;2022-09-17T03:32:19;2.13;;;1.90;;
4674;SDS011;2351;50.812;12.872;2022-09-17T03:34:51;13.23;;;2.40;;
4674;SDS011;2351;50.812;12.872;2022-09-17T03:37:25;3.53;;;2.37;;
4674;SDS011;2351;50.812;12.872;2022-09-17T03:39:56;4.47;;;1.90;;
4674;SDS011;2351;50.812;12.872;2022-09-17T03:42:28;4.03;;;2.43;;
4674;SDS011;2351;50.812;12.872;2022-09-17T03:44:59;3.90;;;2.40;;
4674;SDS011;2351;50.812;12.872;2022-09-17T03:47:31;5.83;;;2.20;;
4674;SDS011;2351;50.812;12.872;2022-09-17T03:50:02;4.00;;;2.67;;
4674;SDS011;2351;50.812;12.872;2022-09-17T03:52:37;3.57;;;2.60;;
4674;SDS011;2351;50.812;12.872;2022-09-17T03:55:08;4.50;;;2.60;;
4674;SDS011;2351;50.812;12.872;2022-09-17T03:57:40;6.00;;;2.87;;
4674;SDS011;2351;50.812;12.872;2022-09-17T04:00:12;5.93;;;3.00;;
4674;SDS011;2351;50.812;12.872;2022-09-17T04:02:46;5.20;;;2.90;;
4674;SDS011;2351;50.812;12.872;2022-09-17T04:05:17;5.00;;;3.30;;
4674;SDS011;2351;50.812;12.872;2022-09-17T04:07:50;2.70;;;2.40;;
4674;SDS011;2351;50.812;12.872;2022-09-17T04:10:22;2.90;;;2.60;;
4674;SDS011;2351;50.812;12.872;2022-09-17T04:12:53;7.73;;;4.03;;
4674;SDS011;2351;50.812;12.872;2022-09-17T04:15:25;4.40;;;2.27;;
4674;SDS011;2351;50.812;12.872;2022-09-17T04:17:57;4.87;;;2.73;;
4674;SDS011;2351;50.812;12.872;2022-09-17T04:20:28;6.83;;;3.83;;
4674;SDS011;2351;50.812;12.872;2022-09-17T04:23:01;4.33;;;3.10;;
4674;SDS011;2351;50.812;12.872;2022-09-17T04:25:33;3.40;;;3.10;;
4674;SDS011;2351;50.812;12.872;2022-09-17T04:28:05;5.30;;;3.37;;
4674;SDS011;2351;50.812;12.872;2022-09-17T04:30:36;7.60;;;3.60;;
4674;SDS011;2351;50.812;12.872;2022-09-17T04:33:08;8.90;;;4.00;;
4674;SDS011;2351;50.812;12.872;2022-09-17T04:35:40;12.60;;;3.27;;
4674;SDS011;2351;50.812;12.872;2022-09-17T04:38:13;6.30;;;3.37;;
4674;SDS011;2351;50.812;12.872;2022-09-17T04:40:47;5.60;;;3.03;;
4674;SDS011;2351;50.812;12.872;2022-09-17T04:43:20;4.27;;;3.57;;
4674;SDS011;2351;50.812;12.872;2022-09-17T04:45:52;3.37;;;3.07;;
4674;SDS011;2351;50.812;12.872;2022-09-17T04:48:23;6.70;;;2.80;;
4674;SDS011;2351;50.812;12.872;2022-09-17T04:50:55;6.53;;;3.10;;
4674;SDS011;2351;50.812;12.872;2022-09-17T04:53:27;4.00;;;2.47;;
4674;SDS011;2351;50.812;12.872;2022-09-17T04:55:59;5.27;;;2.83;;
4674;SDS011;2351;50.812;12.872;2022-09-17T05:01:03;5.63;;;2.83;;
4674;SDS011;2351;50.812;12.872;2022-09-17T05:03:35;4.53;;;3.20;;
4674;SDS011;2351;50.812;12.872;2022-09-17T05:06:07;3.03;;;2.40;;
4674;SDS011;2351;50.812;12.872;2022-09-17T05:08:40;5.30;;;2.37;;
4674;SDS011;2351;50.812;12.872;2022-09-17T05:11:11;3.37;;;2.40;;
4674;SDS011;2351;50.812;12.872;2022-09-17T05:13:43;2.47;;;2.27;;
4674;SDS011;2351;50.812;12.872;2022-09-17T05:16:14;7.57;;;1.87;;
4674;SDS011;2351;50.812;12.872;2022-09-17T05:18:46;8.90;;;1.50;;
4674;SDS011;2351;50.812;12.872;2022-09-17T05:21:18;2.20;;;1.80;;
4674;SDS011;2351;50.812;12.872;2022-09-17T05:23:51;2.57;;;1.60;;
4674;SDS011;2351;50.812;12.872;2022-09-17T05:26:23;7.57;;;2.00;;
4674;SDS011;2351;50.812;12.872;2022-09-17T05:28:55;2.13;;;1.80;;
4674;SDS011;2351;50.812;12.872;2022-09-17T05:31:26;2.10;;;1.30;;
4674;SDS011;2351;50.812;12.872;2022-09-17T05:33:58;3.40;;;1.40;;
4674;SDS011;2351;50.812;12.872;2022-09-17T05:36:29;1.77;;;1.67;;
4674;SDS011;2351;50.812;12.872;2022-09-17T05:39:02;1.90;;;1.17;;
4674;SDS011;2351;50.812;12.872;2022-09-17T05:41:34;3.13;;;1.87;;
4674;SDS011;2351;50.812;12.872;2022-09-17T05:44:05;3.20;;;1.80;;
4674;SDS011;2351;50.812;12.872;2022-09-17T05:46:37;2.50;;;1.77;;
4674;SDS011;2351;50.812;12.872;2022-09-17T05:49:08;1.63;;;1.53;;
4674;SDS011;2351;50.812;12.872;2022-09-17T05:51:40;1.30;;;1.00;;
4674;SDS011;2351;50.812;12.872;2022-09-17T05:54:13;1.83;;;1.53;;
4674;SDS011;2351;50.812;12.872;2022-09-17T05:56:45;1.30;;;1.20;;
4674;SDS011;2351;50.812;12.872;2022-09-17T05:59:16;4.90;;;1.60;;
4674;SDS011;2351;50.812;12.872;2022-09-17T06:01:48;1.20;;;1.10;;
4674;SDS011;2351;50.812;12.872;2022-09-17T06:04:20;1.20;;;1.03;;
4674;SDS011;2351;50.812;12.872;2022-09-17T06:06:52;1.07;;;1.00;;
4674;SDS011;2351;50.812;12.872;2022-09-17T06:09:25;1.87;;;1.10;;
4674;SDS011;2351;50.812;12.872;2022-09-17T06:11:56;4.50;;;1.43;;
4674;SDS011;2351;50.812;12.872;2022-09-17T06:14:28;3.17;;;1.80;;
4674;SDS011;2351;50.812;12.872;2022-09-17T06:17:00;1.50;;;1.40;;
4674;SDS011;2351;50.812;12.872;2022-09-17T06:19:31;2.40;;;1.90;;
4674;SDS011;2351;50.812;12.872;2022-09-17T06:22:03;3.00;;;2.10;;
4674;SDS011;2351;50.812;12.872;2022-09-17T06:24:36;3.80;;;1.93;;
4674;SDS011;2351;50.812;12.872;2022-09-17T06:27:08;1.20;;;1.10;;
4674;SDS011;2351;50.812;12.872;2022-09-17T06:29:40;1.27;;;1.17;;
4674;SDS011;2351;50.812;12.872;2022-09-17T06:32:12;0.97;;;0.97;;
4674;SDS011;2351;50.812;12.872;2022-09-17T06:34:46;1.20;;;1.10;;
4674;SDS011;2351;50.812;12.872;2022-09-17T06:37:17;1.00;;;0.73;;
4674;SDS011;2351;50.812;12.872;2022-09-17T06:39:50;1.77;;;1.00;;
4674;SDS011;2351;50.812;12.872;2022-09-17T06:42:22;1.73;;;1.17;;
4674;SDS011;2351;50.812;12.872;2022-09-17T06:44:53;1.87;;;0.87;;
4674;SDS011;2351;50.812;12.872;2022-09-17T06:47:25;1.37;;;1.10;;
4674;SDS011;2351;50.812;12.872;2022-09-17T06:49:57;3.50;;;1.30;;
4674;SDS011;2351;50.812;12.872;2022-09-17T06:52:30;1.13;;;1.03;;
4674;SDS011;2351;50.812;12.872;2022-09-17T06:55:04;2.70;;;1.43;;
4674;SDS011;2351;50.812;12.872;2022-09-17T06:57:35;1.63;;;1.40;;
4674;SDS011;2351;50.812;12.872;2022-09-17T07:00:08;1.30;;;1.20;;
4674;SDS011;2351;50.812;12.872;2022-09-17T07:02:40;6.10;;;1.73;;
4674;SDS011;2351;50.812;12.872;2022-09-17T07:05:12;4.60;;;1.30;;
4674;SDS011;2351;50.812;12.872;2022-09-17T07:07:43;2.10;;;1.50;;
4674;SDS011;2351;50.812;12.872;2022-09-17T07:10:16;3.50;;;1.40;;
4674;SDS011;2351;50.812;12.872;2022-09-17T07:12:48;3.53;;;1.50;;
4674;SDS011;2351;50.812;12.872;2022-09-17T07:15:19;6.40;;;1.87;;
4674;SDS011;2351;50.812;12.872;2022-09-17T07:17:51;6.27;;;1.80;;
4674;SDS011;2351;50.812;12.872;2022-09-17T07:20:24;3.17;;;1.87;;
4674;SDS011;2351;50.812;12.872;2022-09-17T07:22:55;1.47;;;1.10;;
4674;SDS011;2351;50.812;12.872;2022-09-17T07:25:29;5.17;;;2.17;;
4674;SDS011;2351;50.812;12.872;2022-09-17T07:28:01;2.57;;;2.03;;
4674;SDS011;2351;50.812;12.872;2022-09-17T07:30:33;13.20;;;1.90;;
4674;SDS011;2351;50.812;12.872;2022-09-17T07:33:05;6.03;;;1.80;;
4674;SDS011;2351;50.812;12.872;2022-09-17T07:35:37;18.87;;;2.27;;
4674;SDS011;2351;50.812;12.872;2022-09-17T07:38:08;7.00;;;1.87;;
4674;SDS011;2351;50.812;12.872;2022-09-17T07:40:41;3.67;;;2.07;;
4674;SDS011;2351;50.812;12.872;2022-09-17T07:43:13;16.87;;;2.47;;
4674;SDS011;2351;50.812;12.872;2022-09-17T07:45:44;3.30;;;2.00;;
4674;SDS011;2351;50.812;12.872;2022-09-17T07:48:16;7.57;;;2.37;;
4674;SDS011;2351;50.812;12.872;2022-09-17T07:50:47;8.43;;;2.17;;
4674;SDS011;2351;50.812;12.872;2022-09-17T07:53:19;3.00;;;2.10;;
4674;SDS011;2351;50.812;12.872;2022-09-17T07:55:53;13.60;;;2.07;;
4674;SDS011;2351;50.812;12.872;2022-09-17T07:58:27;4.33;;;2.30;;
4674;SDS011;2351;50.812;12.872;2022-09-17T08:01:00;3.17;;;1.70;;
4674;SDS011;2351;50.812;12.872;2022-09-17T08:03:32;5.00;;;2.03;;
4674;SDS011;2351;50.812;12.872;2022-09-17T08:06:04;5.50;;;1.47;;
4674;SDS011;2351;50.812;12.872;2022-09-17T08:08:38;12.50;;;1.87;;
4674;SDS011;2351;50.812;12.872;2022-09-17T08:11:12;4.83;;;1.60;;
4674;SDS011;2351;50.812;12.872;2022-09-17T08:13:46;6.37;;;1.40;;
4674;SDS011;2351;50.812;12.872;2022-09-17T08:16:19;2.13;;;1.27;;
4674;SDS011;2351;50.812;12.872;2022-09-17T08:18:53;6.40;;;1.87;;
4674;SDS011;2351;50.812;12.872;2022-09-17T08:21:25;4.07;;;1.73;;
4674;SDS011;2351;50.812;12.872;2022-09-17T08:23:57;5.07;;;2.13;;
4674;SDS011;2351;50.812;12.872;2022-09-17T08:26:30;2.80;;;1.73;;
4674;SDS011;2351;50.812;12.872;2022-09-17T08:29:01;4.63;;;1.53;;
4674;SDS011;2351;50.812;12.872;2022-09-17T08:31:33;3.23;;;1.70;;
4674;SDS011;2351;50.812;12.872;2022-09-17T08:34:06;6.10;;;1.67;;
4674;SDS011;2351;50.812;12.872;2022-09-17T08:36:38;4.87;;;1.60;;
4674;SDS011;2351;50.812;12.872;2022-09-17T08:39:10;5.13;;;1.90;;
4674;SDS011;2351;50.812;12.872;2022-09-17T08:41:47;2.87;;;1.40;;
4674;SDS011;2351;50.812;12.872;2022-09-17T08:44:26;4.50;;;1.40;;
4674;SDS011;2351;50.812;12.872;2022-09-17T08:47:07;10.20;;;1.80;;
4674;SDS011;2351;50.812;12.872;2022-09-17T08:49:47;5.53;;;1.50;;
4674;SDS011;2351;50.812;12.872;2022-09-17T08:55:39;2.20;;;1.70;;
4674;SDS011;2351;50.812;12.872;2022-09-17T08:58:22;7.57;;;1.70;;
4674;SDS011;2351;50.812;12.872;2022-09-17T09:01:12;9.87;;;2.00;;
4674;SDS011;2351;50.812;12.872;2022-09-17T09:03:53;5.23;;;1.20;;
4674;SDS011;2351;50.812;12.872;2022-09-17T09:06:33;4.67;;;1.43;;
4674;SDS011;2351;50.812;12.872;2022-09-17T09:09:09;10.13;;;1.70;;
4674;SDS011;2351;50.812;12.872;2022-09-17T09:11:44;7.13;;;1.20;;
4674;SDS011;2351;50.812;12.872;2022-09-17T09:14:22;2.97;;;1.07;;
4674;SDS011;2351;50.812;12.872;2022-09-17T09:16:57;4.20;;;1.17;;
4674;SDS011;2351;50.812;12.872;2022-09-17T09:19:39;2.73;;;1.17;;
4674;SDS011;2351;50.812;12.872;2022-09-17T09:22:14;8.80;;;1.80;;
4674;SDS011;2351;50.812;12.872;2022-09-17T09:25:02;4.23;;;1.40;;
4674;SDS011;2351;50.812;12.872;2022-09-17T09:27:44;7.57;;;1.27;;
4674;SDS011;2351;50.812;12.872;2022-09-17T09:30:21;1.77;;;1.00;;
4674;SDS011;2351;50.812;12.872;2022-09-17T09:32:55;15.13;;;1.77;;
4674;SDS011;2351;50.812;12.872;2022-09-17T09:35:31;7.00;;;1.93;;
4674;SDS011;2351;50.812;12.872;2022-09-17T09:38:10;2.13;;;1.10;;
4674;SDS011;2351;50.812;12.872;2022-09-17T09:40:47;6.10;;;1.00;;
4674;SDS011;2351;50.812;12.872;2022-09-17T09:43:24;5.20;;;2.63;;
4674;SDS011;2351;50.812;12.872;2022-09-17T09:46:12;7.93;;;1.40;;
4674;SDS011;2351;50.812;12.872;2022-09-17T09:48:55;5.30;;;0.90;;
4674;SDS011;2351;50.812;12.872;2022-09-17T09:51:41;4.23;;;0.70;;
4674;SDS011;2351;50.812;12.872;2022-09-17T09:54:24;3.53;;;0.80;;
4674;SDS011;2351;50.812;12.872;2022-09-17T09:57:07;1.73;;;0.83;;
4674;SDS011;2351;50.812;12.872;2022-09-17T09:59:42;3.40;;;0.87;;
4674;SDS011;2351;50.812;12.872;2022-09-17T10:02:16;0.80;;;0.63;;
4674;SDS011;2351;50.812;12.872;2022-09-17T10:04:47;3.03;;;0.80;;
4674;SDS011;2351;50.812;12.872;2022-09-17T10:07:19;4.90;;;0.70;;
4674;SDS011;2351;50.812;12.872;2022-09-17T10:09:50;9.60;;;1.57;;
4674;SDS011;2351;50.812;12.872;2022-09-17T10:12:39;4.43;;;1.10;;
4674;SDS011;2351;50.812;12.872;2022-09-17T10:15:21;5.13;;;1.40;;
4674;SDS011;2351;50.812;12.872;2022-09-17T10:18:11;2.63;;;1.33;;
4674;SDS011;2351;50.812;12.872;2022-09-17T10:20:49;1.67;;;1.23;;
4674;SDS011;2351;50.812;12.872;2022-09-17T10:23:23;5.57;;;1.47;;
4674;SDS011;2351;50.812;12.872;2022-09-17T10:25:56;4.53;;;1.20;;
4674;SDS011;2351;50.812;12.872;2022-09-17T10:28:32;13.97;;;1.07;;
4674;SDS011;2351;50.812;12.872;2022-09-17T10:31:08;9.83;;;1.33;;
4674;SDS011;2351;50.812;12.872;2022-09-17T10:33:50;3.23;;;0.97;;
4674;SDS011;2351;50.812;12.872;2022-09-17T10:36:35;5.93;;;1.00;;
4674;SDS011;2351;50.812;12.872;2022-09-17T10:39:22;6.80;;;0.70;;
4674;SDS011;2351;50.812;12.872;2022-09-17T10:42:00;5.57;;;1.33;;
4674;SDS011;2351;50.812;12.872;2022-09-17T10:44:33;4.93;;;1.53;;
4674;SDS011;2351;50.812;12.872;2022-09-17T10:47:09;4.33;;;0.73;;
4674;SDS011;2351;50.812;12.872;2022-09-17T10:49:45;8.93;;;1.10;;
4674;SDS011;2351;50.812;12.872;2022-09-17T10:52:22;5.67;;;0.93;;
4674;SDS011;2351;50.812;12.872;2022-09-17T10:55:02;5.20;;;0.90;;
4674;SDS011;2351;50.812;12.872;2022-09-17T10:57:51;5.30;;;0.80;;
4674;SDS011;2351;50.812;12.872;2022-09-17T11:00:29;2.80;;;0.80;;
4674;SDS011;2351;50.812;12.872;2022-09-17T11:06:26;7.50;;;1.30;;
4674;SDS011;2351;50.812;12.872;2022-09-17T11:09:24;3.33;;;1.10;;
4674;SDS011;2351;50.812;12.872;2022-09-17T11:12:11;2.93;;;1.13;;
4674;SDS011;2351;50.812;12.872;2022-09-17T11:14:53;7.40;;;0.90;;
4674;SDS011;2351;50.812;12.872;2022-09-17T11:17:42;4.00;;;1.20;;
4674;SDS011;2351;50.812;12.872;2022-09-17T11:20:31;7.10;;;1.07;;
4674;SDS011;2351;50.812;12.872;2022-09-17T11:23:24;1.90;;;0.73;;
4674;SDS011;2351;50.812;12.872;2022-09-17T11:26:23;5.47;;;0.93;;
4674;SDS011;2351;50.812;12.872;2022-09-17T11:29:07;5.93;;;1.07;;
4674;SDS011;2351;50.812;12.872;2022-09-17T11:31:53;10.83;;;1.33;;
4674;SDS011;2351;50.812;12.872;2022-09-17T11:34:29;3.23;;;0.73;;
4674;SDS011;2351;50.812;12.872;2022-09-17T11:37:07;4.87;;;1.23;;
4674;SDS011;2351;50.812;12.872;2022-09-17T11:39:48;6.43;;;0.83;;
4674;SDS011;2351;50.812;12.872;2022-09-17T11:42:25;5.87;;;1.17;;
4674;SDS011;2351;50.812;12.872;2022-09-17T11:45:02;6.43;;;0.90;;
4674;SDS011;2351;50.812;12.872;2022-09-17T11:47:38;1.63;;;0.93;;
4674;SDS011;2351;50.812;12.872;2022-09-17T11:50:17;4.43;;;1.00;;
4674;SDS011;2351;50.812;12.872;2022-09-17T11:52:56;5.83;;;0.83;;
4674;SDS011;2351;50.812;12.872;2022-09-17T11:55:37;17.57;;;1.90;;
4674;SDS011;2351;50.812;12.872;2022-09-17T11:58:15;12.53;;;1.23;;
4674;SDS011;2351;50.812;12.872;2022-09-17T12:01:00;5.30;;;1.20;;
4674;SDS011;2351;50.812;12.872;2022-09-17T12:03:36;2.40;;;1.33;;
4674;SDS011;2351;50.812;12.872;2022-09-17T12:06:14;5.13;;;1.03;;
4674;SDS011;2351;50.812;12.872;2022-09-17T12:08:51;1.73;;;1.00;;
4674;SDS011;2351;50.812;12.872;2022-09-17T12:11:29;5.80;;;1.63;;
4674;SDS011;2351;50.812;12.872;2022-09-17T12:14:07;2.63;;;1.17;;
4674;SDS011;2351;50.812;12.872;2022-09-17T12:16:46;2.30;;;0.90;;
4674;SDS011;2351;50.812;12.872;2022-09-17T12:19:21;4.43;;;0.87;;
4674;SDS011;2351;50.812;12.872;2022-09-17T12:21:58;1.67;;;1.20;;
4674;SDS011;2351;50.812;12.872;2022-09-17T12:24:37;4.60;;;1.30;;
4674;SDS011;2351;50.812;12.872;2022-09-17T12:27:16;2.70;;;0.90;;
4674;SDS011;2351;50.812;12.872;2022-09-17T12:30:03;1.63;;;0.57;;
4674;SDS011;2351;50.812;12.872;2022-09-17T12:32:43;3.90;;;1.60;;
4674;SDS011;2351;50.812;12.872;2022-09-17T12:35:27;4.53;;;1.13;;
4674;SDS011;2351;50.812;12.872;2022-09-17T12:38:14;1.70;;;0.60;;
4674;SDS011;2351;50.812;12.872;2022-09-17T12:40:57;8.63;;;1.20;;
4674;SDS011;2351;50.812;12.872;2022-09-17T12:43:45;2.30;;;0.90;;
4674;SDS011;2351;50.812;12.872;2022-09-17T12:46:33;3.07;;;0.77;;
4674;SDS011;2351;50.812;12.872;2022-09-17T12:49:21;3.13;;;0.87;;
4674;SDS011;2351;50.812;12.872;2022-09-17T12:52:09;4.33;;;1.00;;
4674;SDS011;2351;50.812;12.872;2022-09-17T12:55:04;1.30;;;0.67;;
4674;SDS011;2351;50.812;12.872;2022-09-17T12:57:55;0.93;;;0.60;;
4674;SDS011;2351;50.812;12.872;2022-09-17T13:00:39;1.30;;;0.73;;
4674;SDS011;2351;50.812;12.872;2022-09-17T13:03:17;2.60;;;0.83;;
4674;SDS011;2351;50.812;12.872;2022-09-17T13:06:07;4.30;;;1.10;;
4674;SDS011;2351;50.812;12.872;2022-09-17T13:12:06;5.87;;;1.27;;
4674;SDS011;2351;50.812;12.872;2022-09-17T13:15:08;2.30;;;1.00;;
4674;SDS011;2351;50.812;12.872;2022-09-17T13:18:07;4.70;;;1.50;;
4674;SDS011;2351;50.812;12.872;2022-09-17T13:20:50;2.63;;;1.20;;
4674;SDS011;2351;50.812;12.872;2022-09-17T13:23:32;7.67;;;0.50;;
4674;SDS011;2351;50.812;12.872;2022-09-17T13:26:08;4.50;;;1.00;;
4674;SDS011;2351;50.812;12.872;2022-09-17T13:28:42;12.03;;;0.93;;
4674;SDS011;2351;50.812;12.872;2022-09-17T13:31:19;4.40;;;1.07;;
4674;SDS011;2351;50.812;12.872;2022-09-17T13:33:57;3.47;;;0.90;;
4674;SDS011;2351;50.812;12.872;2022-09-17T13:36:34;2.63;;;0.87;;
4674;SDS011;2351;50.812;12.872;2022-09-17T13:39:30;9.57;;;1.27;;
4674;SDS011;2351;50.812;12.872;2022-09-17T13:42:17;5.00;;;2.90;;
4674;SDS011;2351;50.812;12.872;2022-09-17T13:45:00;5.07;;;1.30;;
4674;SDS011;2351;50.812;12.872;2022-09-17T13:47:34;6.93;;;1.07;;
4674;SDS011;2351;50.812;12.872;2022-09-17T13:50:09;3.60;;;1.17;;
4674;SDS011;2351;50.812;12.872;2022-09-17T13:52:55;2.30;;;0.80;;
4674;SDS011;2351;50.812;12.872;2022-09-17T13:55:33;3.90;;;0.90;;
4674;SDS011;2351;50.812;12.872;2022-09-17T13:58:06;5.33;;;1.13;;
4674;SDS011;2351;50.812;12.872;2022-09-17T14:00:47;2.50;;;1.07;;
4674;SDS011;2351;50.812;12.872;2022-09-17T14:09:30;5.17;;;1.27;;
4674;SDS011;2351;50.812;12.872;2022-09-17T14:12:14;5.13;;;1.20;;
4674;SDS011;2351;50.812;12.872;2022-09-17T14:21:09;5.30;;;0.73;;
4674;SDS011;2351;50.812;12.872;2022-09-17T14:23:46;5.70;;;0.97;;
4674;SDS011;2351;50.812;12.872;2022-09-17T14:26:24;2.40;;;0.93;;
4674;SDS011;2351;50.812;12.872;2022-09-17T14:29:15;8.13;;;1.93;;
4674;SDS011;2351;50.812;12.872;2022-09-17T14:31:58;0.97;;;0.53;;
4674;SDS011;2351;50.812;12.872;2022-09-17T14:34:29;8.03;;;0.70;;
4674;SDS011;2351;50.812;12.872;2022-09-17T14:37:02;1.40;;;0.97;;
4674;SDS011;2351;50.812;12.872;2022-09-17T14:39:36;0.80;;;0.53;;
4674;SDS011;2351;50.812;12.872;2022-09-17T14:42:12;0.40;;;0.40;;
4674;SDS011;2351;50.812;12.872;2022-09-17T14:44:47;2.97;;;0.70;;
4674;SDS011;2351;50.812;12.872;2022-09-17T14:47:24;1.03;;;0.97;;
4674;SDS011;2351;50.812;12.872;2022-09-17T14:50:08;13.50;;;5.50;;
4674;SDS011;2351;50.812;12.872;2022-09-17T14:52:50;6.07;;;1.63;;
4674;SDS011;2351;50.812;12.872;2022-09-17T14:55:24;2.60;;;1.00;;
4674;SDS011;2351;50.812;12.872;2022-09-17T14:58:01;1.77;;;1.40;;
4674;SDS011;2351;50.812;12.872;2022-09-17T15:00:34;1.67;;;1.00;;
4674;SDS011;2351;50.812;12.872;2022-09-17T15:03:18;2.70;;;1.10;;
4674;SDS011;2351;50.812;12.872;2022-09-17T15:05:51;4.13;;;2.00;;
4674;SDS011;2351;50.812;12.872;2022-09-17T15:08:23;2.53;;;1.20;;
4674;SDS011;2351;50.812;12.872;2022-09-17T15:10:59;1.90;;;0.50;;
4674;SDS011;2351;50.812;12.872;2022-09-17T15:13:33;5.70;;;1.00;;
4674;SDS011;2351;50.812;12.872;2022-09-17T15:16:12;4.93;;;0.70;;
4674;SDS011;2351;50.812;12.872;2022-09-17T15:18:48;4.07;;;1.10;;
4674;SDS011;2351;50.812;12.872;2022-09-17T15:21:25;3.47;;;0.80;;
4674;SDS011;2351;50.812;12.872;2022-09-17T15:24:00;4.70;;;1.00;;
4674;SDS011;2351;50.812;12.872;2022-09-17T15:26:40;1.67;;;1.00;;
4674;SDS011;2351;50.812;12.872;2022-09-17T15:29:15;4.10;;;0.83;;
4674;SDS011;2351;50.812;12.872;2022-09-17T15:31:51;2.80;;;1.00;;
4674;SDS011;2351;50.812;12.872;2022-09-17T15:34:23;7.20;;;1.07;;
4674;SDS011;2351;50.812;12.872;2022-09-17T15:37:04;4.10;;;1.50;;
4674;SDS011;2351;50.812;12.872;2022-09-17T15:39:37;2.40;;;0.97;;
4674;SDS011;2351;50.812;12.872;2022-09-17T15:42:18;0.90;;;0.80;;
4674;SDS011;2351;50.812;12.872;2022-09-17T15:44:52;2.47;;;0.80;;
4674;SDS011;2351;50.812;12.872;2022-09-17T15:47:47;4.97;;;0.87;;
4674;SDS011;2351;50.812;12.872;2022-09-17T15:50:22;16.57;;;1.20;;
4674;SDS011;2351;50.812;12.872;2022-09-17T15:53:11;2.90;;;0.90;;
4674;SDS011;2351;50.812;12.872;2022-09-17T15:55:44;12.93;;;1.20;;
4674;SDS011;2351;50.812;12.872;2022-09-17T15:58:30;2.53;;;0.93;;
4674;SDS011;2351;50.812;12.872;2022-09-17T16:04:20;3.83;;;1.70;;
4674;SDS011;2351;50.812;12.872;2022-09-17T16:06:57;1.67;;;0.70;;
4674;SDS011;2351;50.812;12.872;2022-09-17T16:09:48;3.73;;;0.87;;
4674;SDS011;2351;50.812;12.872;2022-09-17T16:12:22;2.53;;;0.97;;
4674;SDS011;2351;50.812;12.872;2022-09-17T16:14:57;1.77;;;0.77;;
4674;SDS011;2351;50.812;12.872;2022-09-17T16:17:41;4.40;;;1.03;;
4674;SDS011;2351;50.812;12.872;2022-09-17T16:20:15;2.73;;;0.83;;
4674;SDS011;2351;50.812;12.872;2022-09-17T16:22:48;1.87;;;0.80;;
4674;SDS011;2351;50.812;12.872;2022-09-17T16:25:22;3.90;;;0.60;;
4674;SDS011;2351;50.812;12.872;2022-09-17T16:27:55;1.10;;;0.50;;
4674;SDS011;2351;50.812;12.872;2022-09-17T16:30:30;3.27;;;0.77;;
4674;SDS011;2351;50.812;12.872;2022-09-17T16:33:02;2.23;;;0.70;;
4674;SDS011;2351;50.812;12.872;2022-09-17T16:35:35;5.23;;;1.33;;